sensor_id;sensor_type;location;lat;lon;timestamp;P1;durP1;ratioP1;P2;durP2;ratioP2
16689;SDS011;8458;52.220;9.884;2022-09-27T00:01:02;0.63;;;0.40;;
16689;SDS011;8458;52.220;9.884;2022-09-27T00:03:33;0.57;;;0.40;;
16689;SDS011;8458;52.220;9.884;2022-09-27T00:06:00;0.50;;;0.50;;
16689;SDS011;8458;52.220;9.884;2022-09-27T00:08:29;0.63;;;0.40;;
16689;SDS011;8458;52.220;9.884;2022-09-27T00:10:57;0.37;;;0.37;;
16689;SDS011;8458;52.220;9.884;2022-09-27T00:13:25;0.30;;;0.30;;
16689;SDS011;8458;52.220;9.884;2022-09-27T00:15:54;0.43;;;0.43;;
16689;SDS011;8458;52.220;9.884;2022-09-27T00:18:21;0.33;;;0.33;;
16689;SDS011;8458;52.220;9.884;2022-09-27T00:20:49;0.43;;;0.40;;
16689;SDS011;8458;52.220;9.884;2022-09-27T00:23:16;0.57;;;0.37;;
16689;SDS011;8458;52.220;9.884;2022-09-27T00:25:42;0.30;;;0.30;;
16689;SDS011;8458;52.220;9.884;2022-09-27T00:28:19;0.30;;;0.30;;
16689;SDS011;8458;52.220;9.884;2022-09-27T00:30:45;0.47;;;0.30;;
16689;SDS011;8458;52.220;9.884;2022-09-27T00:33:12;0.23;;;0.23;;
16689;SDS011;8458;52.220;9.884;2022-09-27T00:35:38;1.47;;;0.40;;
16689;SDS011;8458;52.220;9.884;2022-09-27T00:38:06;0.30;;;0.30;;
16689;SDS011;8458;52.220;9.884;2022-09-27T00:40:33;0.53;;;0.20;;
16689;SDS011;8458;52.220;9.884;2022-09-27T00:42:59;0.20;;;0.20;;
16689;SDS011;8458;52.220;9.884;2022-09-27T00:45:26;0.20;;;0.20;;
16689;SDS011;8458;52.220;9.884;2022-09-27T00:47:53;0.40;;;0.30;;
16689;SDS011;8458;52.220;9.884;2022-09-27T00:50:25;0.60;;;0.47;;
16689;SDS011;8458;52.220;9.884;2022-09-27T00:52:58;0.20;;;0.20;;
16689;SDS011;8458;52.220;9.884;2022-09-27T00:55:31;0.30;;;0.30;;
16689;SDS011;8458;52.220;9.884;2022-09-27T00:58:00;0.30;;;0.30;;
16689;SDS011;8458;52.220;9.884;2022-09-27T01:00:28;0.30;;;0.30;;
16689;SDS011;8458;52.220;9.884;2022-09-27T01:02:55;0.40;;;0.40;;
16689;SDS011;8458;52.220;9.884;2022-09-27T01:05:23;0.53;;;0.30;;
16689;SDS011;8458;52.220;9.884;2022-09-27T01:07:52;0.37;;;0.37;;
16689;SDS011;8458;52.220;9.884;2022-09-27T01:10:20;0.43;;;0.37;;
16689;SDS011;8458;52.220;9.884;2022-09-27T01:12:53;0.30;;;0.30;;
16689;SDS011;8458;52.220;9.884;2022-09-27T01:15:33;0.40;;;0.40;;
16689;SDS011;8458;52.220;9.884;2022-09-27T01:18:15;0.70;;;0.50;;
16689;SDS011;8458;52.220;9.884;2022-09-27T01:20:55;0.40;;;0.40;;
16689;SDS011;8458;52.220;9.884;2022-09-27T01:23:46;0.50;;;0.50;;
16689;SDS011;8458;52.220;9.884;2022-09-27T01:26:27;0.77;;;0.67;;
16689;SDS011;8458;52.220;9.884;2022-09-27T01:29:08;0.40;;;0.40;;
16689;SDS011;8458;52.220;9.884;2022-09-27T01:31:40;0.50;;;0.50;;
16689;SDS011;8458;52.220;9.884;2022-09-27T01:34:17;0.40;;;0.40;;
16689;SDS011;8458;52.220;9.884;2022-09-27T01:36:51;1.03;;;0.70;;
16689;SDS011;8458;52.220;9.884;2022-09-27T01:39:28;0.50;;;0.50;;
16689;SDS011;8458;52.220;9.884;2022-09-27T01:42:03;0.50;;;0.50;;
16689;SDS011;8458;52.220;9.884;2022-09-27T01:44:37;0.70;;;0.40;;
16689;SDS011;8458;52.220;9.884;2022-09-27T01:47:11;0.50;;;0.50;;
16689;SDS011;8458;52.220;9.884;2022-09-27T01:49:43;0.60;;;0.50;;
16689;SDS011;8458;52.220;9.884;2022-09-27T01:52:14;0.37;;;0.37;;
16689;SDS011;8458;52.220;9.884;2022-09-27T01:54:47;0.50;;;0.50;;
16689;SDS011;8458;52.220;9.884;2022-09-27T01:57:18;0.93;;;0.50;;
16689;SDS011;8458;52.220;9.884;2022-09-27T01:59:49;0.70;;;0.50;;
16689;SDS011;8458;52.220;9.884;2022-09-27T02:02:21;0.60;;;0.60;;
16689;SDS011;8458;52.220;9.884;2022-09-27T02:04:49;0.60;;;0.60;;
16689;SDS011;8458;52.220;9.884;2022-09-27T02:07:20;0.60;;;0.60;;
16689;SDS011;8458;52.220;9.884;2022-09-27T02:09:50;0.80;;;0.80;;
16689;SDS011;8458;52.220;9.884;2022-09-27T02:12:24;0.60;;;0.60;;
16689;SDS011;8458;52.220;9.884;2022-09-27T02:14:55;0.63;;;0.60;;
16689;SDS011;8458;52.220;9.884;2022-09-27T02:17:28;0.80;;;0.80;;
16689;SDS011;8458;52.220;9.884;2022-09-27T02:20:00;0.90;;;0.80;;
16689;SDS011;8458;52.220;9.884;2022-09-27T02:22:33;0.60;;;0.60;;
16689;SDS011;8458;52.220;9.884;2022-09-27T02:25:05;0.80;;;0.77;;
16689;SDS011;8458;52.220;9.884;2022-09-27T02:27:39;1.10;;;0.70;;
16689;SDS011;8458;52.220;9.884;2022-09-27T02:30:15;0.77;;;0.70;;
16689;SDS011;8458;52.220;9.884;2022-09-27T02:32:43;1.07;;;0.97;;
16689;SDS011;8458;52.220;9.884;2022-09-27T02:35:11;1.67;;;1.00;;
16689;SDS011;8458;52.220;9.884;2022-09-27T02:37:41;1.13;;;0.90;;
16689;SDS011;8458;52.220;9.884;2022-09-27T02:40:08;1.00;;;0.90;;
16689;SDS011;8458;52.220;9.884;2022-09-27T02:42:35;1.77;;;1.00;;
16689;SDS011;8458;52.220;9.884;2022-09-27T02:45:05;2.10;;;0.93;;
16689;SDS011;8458;52.220;9.884;2022-09-27T02:50:43;0.80;;;0.80;;
16689;SDS011;8458;52.220;9.884;2022-09-27T02:53:30;0.97;;;0.90;;
16689;SDS011;8458;52.220;9.884;2022-09-27T02:56:08;1.23;;;0.93;;
16689;SDS011;8458;52.220;9.884;2022-09-27T02:58:45;1.03;;;0.93;;
16689;SDS011;8458;52.220;9.884;2022-09-27T03:01:17;1.47;;;1.00;;
16689;SDS011;8458;52.220;9.884;2022-09-27T03:03:54;0.80;;;0.80;;
16689;SDS011;8458;52.220;9.884;2022-09-27T03:06:28;1.13;;;0.97;;
16689;SDS011;8458;52.220;9.884;2022-09-27T03:08:57;2.00;;;1.10;;
16689;SDS011;8458;52.220;9.884;2022-09-27T03:11:23;1.17;;;1.07;;
16689;SDS011;8458;52.220;9.884;2022-09-27T03:13:50;1.27;;;1.10;;
16689;SDS011;8458;52.220;9.884;2022-09-27T03:16:17;1.70;;;1.30;;
16689;SDS011;8458;52.220;9.884;2022-09-27T03:18:44;2.20;;;1.30;;
16689;SDS011;8458;52.220;9.884;2022-09-27T03:21:12;1.67;;;1.20;;
16689;SDS011;8458;52.220;9.884;2022-09-27T03:23:38;2.10;;;1.50;;
16689;SDS011;8458;52.220;9.884;2022-09-27T03:26:05;1.80;;;1.53;;
16689;SDS011;8458;52.220;9.884;2022-09-27T03:28:31;2.13;;;1.83;;
16689;SDS011;8458;52.220;9.884;2022-09-27T03:30:59;2.03;;;1.80;;
16689;SDS011;8458;52.220;9.884;2022-09-27T03:33:26;2.20;;;2.00;;
16689;SDS011;8458;52.220;9.884;2022-09-27T03:35:52;1.70;;;1.60;;
16689;SDS011;8458;52.220;9.884;2022-09-27T03:38:20;2.20;;;1.80;;
16689;SDS011;8458;52.220;9.884;2022-09-27T03:40:47;2.27;;;1.93;;
16689;SDS011;8458;52.220;9.884;2022-09-27T03:43:13;2.53;;;1.97;;
16689;SDS011;8458;52.220;9.884;2022-09-27T03:45:41;2.30;;;2.10;;
16689;SDS011;8458;52.220;9.884;2022-09-27T03:48:08;3.00;;;2.07;;
16689;SDS011;8458;52.220;9.884;2022-09-27T03:50:35;2.33;;;2.13;;
16689;SDS011;8458;52.220;9.884;2022-09-27T03:53:02;2.47;;;2.27;;
16689;SDS011;8458;52.220;9.884;2022-09-27T03:55:29;2.30;;;2.10;;
16689;SDS011;8458;52.220;9.884;2022-09-27T03:57:56;2.20;;;2.00;;
16689;SDS011;8458;52.220;9.884;2022-09-27T04:00:23;2.23;;;2.03;;
16689;SDS011;8458;52.220;9.884;2022-09-27T04:02:50;1.90;;;1.63;;
16689;SDS011;8458;52.220;9.884;2022-09-27T04:05:16;2.33;;;2.17;;
16689;SDS011;8458;52.220;9.884;2022-09-27T04:07:45;2.30;;;1.90;;
16689;SDS011;8458;52.220;9.884;2022-09-27T04:10:12;1.77;;;1.67;;
16689;SDS011;8458;52.220;9.884;2022-09-27T04:12:40;2.63;;;1.50;;
16689;SDS011;8458;52.220;9.884;2022-09-27T04:15:07;1.40;;;1.30;;
16689;SDS011;8458;52.220;9.884;2022-09-27T04:17:34;1.37;;;1.27;;
16689;SDS011;8458;52.220;9.884;2022-09-27T04:20:01;1.40;;;1.30;;
16689;SDS011;8458;52.220;9.884;2022-09-27T04:22:28;1.23;;;1.13;;
16689;SDS011;8458;52.220;9.884;2022-09-27T04:24:55;1.63;;;0.90;;
16689;SDS011;8458;52.220;9.884;2022-09-27T04:27:21;1.53;;;1.13;;
16689;SDS011;8458;52.220;9.884;2022-09-27T04:29:50;1.30;;;1.10;;
16689;SDS011;8458;52.220;9.884;2022-09-27T04:32:16;1.77;;;1.10;;
16689;SDS011;8458;52.220;9.884;2022-09-27T04:34:43;2.00;;;1.30;;
16689;SDS011;8458;52.220;9.884;2022-09-27T04:37:27;1.10;;;1.00;;
16689;SDS011;8458;52.220;9.884;2022-09-27T04:39:53;1.10;;;0.90;;
16689;SDS011;8458;52.220;9.884;2022-09-27T04:42:20;1.20;;;0.87;;
16689;SDS011;8458;52.220;9.884;2022-09-27T04:44:46;1.70;;;0.93;;
16689;SDS011;8458;52.220;9.884;2022-09-27T04:47:14;2.03;;;1.17;;
16689;SDS011;8458;52.220;9.884;2022-09-27T04:49:42;2.10;;;1.10;;
16689;SDS011;8458;52.220;9.884;2022-09-27T04:52:09;1.37;;;1.20;;
16689;SDS011;8458;52.220;9.884;2022-09-27T04:54:35;1.63;;;1.13;;
16689;SDS011;8458;52.220;9.884;2022-09-27T04:57:02;1.10;;;1.00;;
16689;SDS011;8458;52.220;9.884;2022-09-27T04:59:29;1.37;;;1.27;;
16689;SDS011;8458;52.220;9.884;2022-09-27T05:01:55;1.93;;;1.10;;
16689;SDS011;8458;52.220;9.884;2022-09-27T05:04:25;1.43;;;1.10;;
16689;SDS011;8458;52.220;9.884;2022-09-27T05:06:52;1.17;;;1.00;;
16689;SDS011;8458;52.220;9.884;2022-09-27T05:09:19;1.10;;;0.70;;
16689;SDS011;8458;52.220;9.884;2022-09-27T05:11:45;0.90;;;0.90;;
16689;SDS011;8458;52.220;9.884;2022-09-27T05:14:12;1.53;;;0.90;;
16689;SDS011;8458;52.220;9.884;2022-09-27T05:16:38;0.90;;;0.83;;
16689;SDS011;8458;52.220;9.884;2022-09-27T05:19:05;1.00;;;0.80;;
16689;SDS011;8458;52.220;9.884;2022-09-27T05:21:33;0.87;;;0.80;;
16689;SDS011;8458;52.220;9.884;2022-09-27T05:24:00;0.60;;;0.60;;
16689;SDS011;8458;52.220;9.884;2022-09-27T05:26:26;1.00;;;0.60;;
16689;SDS011;8458;52.220;9.884;2022-09-27T05:28:53;1.03;;;0.63;;
16689;SDS011;8458;52.220;9.884;2022-09-27T05:31:20;1.37;;;0.70;;
16689;SDS011;8458;52.220;9.884;2022-09-27T05:33:46;1.70;;;0.80;;
16689;SDS011;8458;52.220;9.884;2022-09-27T05:36:13;1.50;;;0.70;;
16689;SDS011;8458;52.220;9.884;2022-09-27T05:38:41;2.23;;;0.73;;
16689;SDS011;8458;52.220;9.884;2022-09-27T05:41:08;1.43;;;0.83;;
16689;SDS011;8458;52.220;9.884;2022-09-27T05:43:35;1.27;;;0.80;;
16689;SDS011;8458;52.220;9.884;2022-09-27T05:46:02;1.93;;;0.87;;
16689;SDS011;8458;52.220;9.884;2022-09-27T05:48:30;0.83;;;0.80;;
16689;SDS011;8458;52.220;9.884;2022-09-27T05:50:56;1.70;;;0.87;;
16689;SDS011;8458;52.220;9.884;2022-09-27T05:53:23;1.50;;;1.00;;
16689;SDS011;8458;52.220;9.884;2022-09-27T05:55:51;0.90;;;0.90;;
16689;SDS011;8458;52.220;9.884;2022-09-27T05:58:18;1.17;;;1.07;;
16689;SDS011;8458;52.220;9.884;2022-09-27T06:00:44;1.63;;;1.47;;
16689;SDS011;8458;52.220;9.884;2022-09-27T06:03:11;2.07;;;1.97;;
16689;SDS011;8458;52.220;9.884;2022-09-27T06:05:38;2.17;;;1.97;;
16689;SDS011;8458;52.220;9.884;2022-09-27T06:08:06;2.17;;;1.90;;
16689;SDS011;8458;52.220;9.884;2022-09-27T06:10:34;2.80;;;1.87;;
16689;SDS011;8458;52.220;9.884;2022-09-27T06:13:03;2.50;;;1.53;;
16689;SDS011;8458;52.220;9.884;2022-09-27T06:15:31;1.97;;;1.50;;
16689;SDS011;8458;52.220;9.884;2022-09-27T06:18:01;2.50;;;1.37;;
16689;SDS011;8458;52.220;9.884;2022-09-27T06:20:29;2.13;;;1.30;;
16689;SDS011;8458;52.220;9.884;2022-09-27T06:23:01;1.30;;;1.20;;
16689;SDS011;8458;52.220;9.884;2022-09-27T06:25:29;1.60;;;1.50;;
16689;SDS011;8458;52.220;9.884;2022-09-27T06:27:55;1.97;;;1.40;;
16689;SDS011;8458;52.220;9.884;2022-09-27T06:30:23;1.40;;;1.30;;
16689;SDS011;8458;52.220;9.884;2022-09-27T06:32:54;1.83;;;1.60;;
16689;SDS011;8458;52.220;9.884;2022-09-27T06:35:21;1.73;;;1.57;;
16689;SDS011;8458;52.220;9.884;2022-09-27T06:37:49;2.27;;;1.60;;
16689;SDS011;8458;52.220;9.884;2022-09-27T06:40:16;2.30;;;2.10;;
16689;SDS011;8458;52.220;9.884;2022-09-27T06:42:43;4.30;;;2.23;;
16689;SDS011;8458;52.220;9.884;2022-09-27T06:45:10;2.90;;;2.10;;
16689;SDS011;8458;52.220;9.884;2022-09-27T06:47:38;2.30;;;2.07;;
16689;SDS011;8458;52.220;9.884;2022-09-27T06:50:05;3.43;;;2.00;;
16689;SDS011;8458;52.220;9.884;2022-09-27T06:52:32;2.77;;;2.27;;
16689;SDS011;8458;52.220;9.884;2022-09-27T06:54:59;2.97;;;2.20;;
16689;SDS011;8458;52.220;9.884;2022-09-27T06:57:26;3.27;;;2.63;;
16689;SDS011;8458;52.220;9.884;2022-09-27T07:00:11;2.57;;;2.00;;
16689;SDS011;8458;52.220;9.884;2022-09-27T07:02:52;2.70;;;1.90;;
16689;SDS011;8458;52.220;9.884;2022-09-27T07:05:22;2.60;;;1.67;;
16689;SDS011;8458;52.220;9.884;2022-09-27T07:07:49;2.70;;;1.60;;
16689;SDS011;8458;52.220;9.884;2022-09-27T07:10:22;2.30;;;1.37;;
16689;SDS011;8458;52.220;9.884;2022-09-27T07:12:49;2.90;;;1.17;;
16689;SDS011;8458;52.220;9.884;2022-09-27T07:15:16;1.63;;;1.20;;
16689;SDS011;8458;52.220;9.884;2022-09-27T07:17:43;2.27;;;1.13;;
16689;SDS011;8458;52.220;9.884;2022-09-27T07:20:11;1.70;;;1.13;;
16689;SDS011;8458;52.220;9.884;2022-09-27T07:22:38;2.13;;;1.40;;
16689;SDS011;8458;52.220;9.884;2022-09-27T07:25:07;1.20;;;1.10;;
16689;SDS011;8458;52.220;9.884;2022-09-27T07:27:34;2.07;;;1.40;;
16689;SDS011;8458;52.220;9.884;2022-09-27T07:30:00;2.00;;;1.50;;
16689;SDS011;8458;52.220;9.884;2022-09-27T07:32:27;3.00;;;1.47;;
16689;SDS011;8458;52.220;9.884;2022-09-27T07:34:54;2.20;;;1.80;;
16689;SDS011;8458;52.220;9.884;2022-09-27T07:37:21;2.77;;;1.30;;
16689;SDS011;8458;52.220;9.884;2022-09-27T07:39:48;2.80;;;1.67;;
16689;SDS011;8458;52.220;9.884;2022-09-27T07:42:15;1.47;;;1.30;;
16689;SDS011;8458;52.220;9.884;2022-09-27T07:44:41;2.53;;;1.53;;
16689;SDS011;8458;52.220;9.884;2022-09-27T07:47:08;1.57;;;1.23;;
16689;SDS011;8458;52.220;9.884;2022-09-27T07:49:35;1.93;;;1.47;;
16689;SDS011;8458;52.220;9.884;2022-09-27T07:52:01;3.80;;;1.80;;
16689;SDS011;8458;52.220;9.884;2022-09-27T07:54:29;1.30;;;1.20;;
16689;SDS011;8458;52.220;9.884;2022-09-27T07:56:56;1.53;;;1.43;;
16689;SDS011;8458;52.220;9.884;2022-09-27T07:59:22;1.47;;;1.20;;
16689;SDS011;8458;52.220;9.884;2022-09-27T08:01:49;3.60;;;1.40;;
16689;SDS011;8458;52.220;9.884;2022-09-27T08:04:15;1.73;;;1.17;;
16689;SDS011;8458;52.220;9.884;2022-09-27T08:06:42;1.60;;;1.17;;
16689;SDS011;8458;52.220;9.884;2022-09-27T08:09:09;1.73;;;1.07;;
16689;SDS011;8458;52.220;9.884;2022-09-27T08:11:37;1.10;;;1.00;;
16689;SDS011;8458;52.220;9.884;2022-09-27T08:14:03;2.63;;;1.00;;
16689;SDS011;8458;52.220;9.884;2022-09-27T08:16:31;2.17;;;1.10;;
16689;SDS011;8458;52.220;9.884;2022-09-27T08:18:58;1.30;;;1.20;;
16689;SDS011;8458;52.220;9.884;2022-09-27T08:21:25;3.13;;;1.33;;
16689;SDS011;8458;52.220;9.884;2022-09-27T08:23:51;2.10;;;1.30;;
16689;SDS011;8458;52.220;9.884;2022-09-27T08:26:19;1.13;;;1.03;;
16689;SDS011;8458;52.220;9.884;2022-09-27T08:28:47;1.87;;;1.40;;
16689;SDS011;8458;52.220;9.884;2022-09-27T08:31:14;1.83;;;1.37;;
16689;SDS011;8458;52.220;9.884;2022-09-27T08:33:40;2.43;;;1.40;;
16689;SDS011;8458;52.220;9.884;2022-09-27T08:36:09;3.17;;;1.73;;
16689;SDS011;8458;52.220;9.884;2022-09-27T08:38:36;2.07;;;1.40;;
16689;SDS011;8458;52.220;9.884;2022-09-27T08:41:04;1.53;;;1.43;;
16689;SDS011;8458;52.220;9.884;2022-09-27T08:43:35;1.63;;;1.30;;
16689;SDS011;8458;52.220;9.884;2022-09-27T08:46:17;1.83;;;1.10;;
16689;SDS011;8458;52.220;9.884;2022-09-27T08:48:51;0.77;;;0.70;;
16689;SDS011;8458;52.220;9.884;2022-09-27T08:51:24;1.00;;;0.87;;
16689;SDS011;8458;52.220;9.884;2022-09-27T08:53:55;1.37;;;1.00;;
16689;SDS011;8458;52.220;9.884;2022-09-27T08:56:26;1.47;;;0.90;;
16689;SDS011;8458;52.220;9.884;2022-09-27T08:58:54;1.33;;;1.00;;
16689;SDS011;8458;52.220;9.884;2022-09-27T09:01:28;1.97;;;0.90;;
16689;SDS011;8458;52.220;9.884;2022-09-27T09:03:55;1.87;;;0.90;;
16689;SDS011;8458;52.220;9.884;2022-09-27T09:06:24;0.90;;;0.90;;
16689;SDS011;8458;52.220;9.884;2022-09-27T09:08:59;1.53;;;0.80;;
16689;SDS011;8458;52.220;9.884;2022-09-27T09:11:37;0.80;;;0.70;;
16689;SDS011;8458;52.220;9.884;2022-09-27T09:17:36;1.03;;;0.70;;
16689;SDS011;8458;52.220;9.884;2022-09-27T09:20:18;1.20;;;0.90;;
16689;SDS011;8458;52.220;9.884;2022-09-27T09:23:07;0.90;;;0.60;;
16689;SDS011;8458;52.220;9.884;2022-09-27T09:25:48;0.83;;;0.60;;
16689;SDS011;8458;52.220;9.884;2022-09-27T09:28:25;1.53;;;0.60;;
16689;SDS011;8458;52.220;9.884;2022-09-27T09:31:04;2.27;;;1.40;;
16689;SDS011;8458;52.220;9.884;2022-09-27T09:33:40;2.30;;;0.63;;
16689;SDS011;8458;52.220;9.884;2022-09-27T09:36:12;0.83;;;0.50;;
16689;SDS011;8458;52.220;9.884;2022-09-27T09:38:46;0.53;;;0.40;;
16689;SDS011;8458;52.220;9.884;2022-09-27T09:41:19;0.53;;;0.40;;
16689;SDS011;8458;52.220;9.884;2022-09-27T09:43:50;1.03;;;0.40;;
16689;SDS011;8458;52.220;9.884;2022-09-27T09:46:21;0.97;;;0.40;;
16689;SDS011;8458;52.220;9.884;2022-09-27T09:48:55;1.10;;;0.40;;
16689;SDS011;8458;52.220;9.884;2022-09-27T09:51:31;0.97;;;0.50;;
16689;SDS011;8458;52.220;9.884;2022-09-27T09:54:04;1.37;;;0.80;;
16689;SDS011;8458;52.220;9.884;2022-09-27T09:56:39;1.17;;;0.77;;
16689;SDS011;8458;52.220;9.884;2022-09-27T09:59:13;1.83;;;0.50;;
16689;SDS011;8458;52.220;9.884;2022-09-27T10:01:43;0.70;;;0.40;;
16689;SDS011;8458;52.220;9.884;2022-09-27T10:04:14;1.60;;;0.40;;
16689;SDS011;8458;52.220;9.884;2022-09-27T10:06:43;0.50;;;0.40;;
16689;SDS011;8458;52.220;9.884;2022-09-27T10:09:10;1.17;;;0.60;;
16689;SDS011;8458;52.220;9.884;2022-09-27T10:11:39;1.77;;;0.50;;
16689;SDS011;8458;52.220;9.884;2022-09-27T10:14:08;0.40;;;0.30;;
16689;SDS011;8458;52.220;9.884;2022-09-27T10:16:36;0.97;;;0.30;;
16689;SDS011;8458;52.220;9.884;2022-09-27T10:19:06;0.53;;;0.37;;
16689;SDS011;8458;52.220;9.884;2022-09-27T10:21:37;0.77;;;0.33;;
16689;SDS011;8458;52.220;9.884;2022-09-27T10:24:10;1.60;;;0.23;;
16689;SDS011;8458;52.220;9.884;2022-09-27T10:26:39;0.77;;;0.30;;
16689;SDS011;8458;52.220;9.884;2022-09-27T10:29:21;0.83;;;0.37;;
16689;SDS011;8458;52.220;9.884;2022-09-27T10:31:49;2.07;;;0.30;;
16689;SDS011;8458;52.220;9.884;2022-09-27T10:34:19;0.97;;;0.30;;
16689;SDS011;8458;52.220;9.884;2022-09-27T10:37:16;0.70;;;0.20;;
16689;SDS011;8458;52.220;9.884;2022-09-27T10:39:44;0.60;;;0.20;;
16689;SDS011;8458;52.220;9.884;2022-09-27T10:42:22;0.97;;;0.20;;
16689;SDS011;8458;52.220;9.884;2022-09-27T10:44:57;0.67;;;0.37;;
16689;SDS011;8458;52.220;9.884;2022-09-27T10:47:44;0.63;;;0.40;;
16689;SDS011;8458;52.220;9.884;2022-09-27T10:50:14;1.60;;;0.37;;
16689;SDS011;8458;52.220;9.884;2022-09-27T10:52:47;1.57;;;0.80;;
16689;SDS011;8458;52.220;9.884;2022-09-27T10:55:21;0.70;;;0.60;;
16689;SDS011;8458;52.220;9.884;2022-09-27T10:57:49;1.37;;;0.40;;
16689;SDS011;8458;52.220;9.884;2022-09-27T11:00:20;0.87;;;0.27;;
16689;SDS011;8458;52.220;9.884;2022-09-27T11:02:50;0.87;;;0.20;;
16689;SDS011;8458;52.220;9.884;2022-09-27T11:05:28;1.00;;;0.30;;
16689;SDS011;8458;52.220;9.884;2022-09-27T11:07:59;1.20;;;0.23;;
16689;SDS011;8458;52.220;9.884;2022-09-27T11:10:28;1.73;;;0.30;;
16689;SDS011;8458;52.220;9.884;2022-09-27T11:13:06;0.80;;;0.30;;
16689;SDS011;8458;52.220;9.884;2022-09-27T11:15:38;1.03;;;0.57;;
16689;SDS011;8458;52.220;9.884;2022-09-27T11:18:19;0.60;;;0.30;;
16689;SDS011;8458;52.220;9.884;2022-09-27T11:20:58;0.30;;;0.20;;
16689;SDS011;8458;52.220;9.884;2022-09-27T11:23:35;0.30;;;0.30;;
16689;SDS011;8458;52.220;9.884;2022-09-27T11:26:15;0.53;;;0.30;;
16689;SDS011;8458;52.220;9.884;2022-09-27T11:28:54;0.97;;;0.30;;
16689;SDS011;8458;52.220;9.884;2022-09-27T11:31:29;1.13;;;0.30;;
16689;SDS011;8458;52.220;9.884;2022-09-27T11:34:24;1.03;;;0.30;;
16689;SDS011;8458;52.220;9.884;2022-09-27T11:37:03;1.13;;;0.40;;
16689;SDS011;8458;52.220;9.884;2022-09-27T11:39:42;0.10;;;0.10;;
16689;SDS011;8458;52.220;9.884;2022-09-27T11:42:23;0.47;;;0.20;;
16689;SDS011;8458;52.220;9.884;2022-09-27T11:45:11;0.83;;;0.30;;
16689;SDS011;8458;52.220;9.884;2022-09-27T11:47:50;0.23;;;0.20;;
16689;SDS011;8458;52.220;9.884;2022-09-27T11:50:42;0.33;;;0.10;;
16689;SDS011;8458;52.220;9.884;2022-09-27T11:53:23;0.27;;;0.20;;
16689;SDS011;8458;52.220;9.884;2022-09-27T11:56:04;0.67;;;0.10;;
16689;SDS011;8458;52.220;9.884;2022-09-27T11:58:39;0.70;;;0.10;;
16689;SDS011;8458;52.220;9.884;2022-09-27T12:01:18;1.00;;;0.20;;
16689;SDS011;8458;52.220;9.884;2022-09-27T12:03:59;1.00;;;0.20;;
16689;SDS011;8458;52.220;9.884;2022-09-27T12:06:43;0.73;;;0.20;;
16689;SDS011;8458;52.220;9.884;2022-09-27T12:09:19;0.30;;;0.30;;
16689;SDS011;8458;52.220;9.884;2022-09-27T12:11:52;1.13;;;0.30;;
16689;SDS011;8458;52.220;9.884;2022-09-27T12:14:26;0.80;;;0.30;;
16689;SDS011;8458;52.220;9.884;2022-09-27T12:16:59;0.60;;;0.20;;
16689;SDS011;8458;52.220;9.884;2022-09-27T12:19:29;0.50;;;0.20;;
16689;SDS011;8458;52.220;9.884;2022-09-27T12:22:01;0.40;;;0.20;;
16689;SDS011;8458;52.220;9.884;2022-09-27T12:24:30;0.80;;;0.30;;
16689;SDS011;8458;52.220;9.884;2022-09-27T12:27:00;1.07;;;0.20;;
16689;SDS011;8458;52.220;9.884;2022-09-27T12:29:34;0.53;;;0.20;;
16689;SDS011;8458;52.220;9.884;2022-09-27T12:32:07;0.30;;;0.20;;
16689;SDS011;8458;52.220;9.884;2022-09-27T12:34:39;0.30;;;0.20;;
16689;SDS011;8458;52.220;9.884;2022-09-27T12:37:11;1.03;;;0.30;;
16689;SDS011;8458;52.220;9.884;2022-09-27T12:39:46;1.10;;;0.20;;
16689;SDS011;8458;52.220;9.884;2022-09-27T12:42:20;1.13;;;0.40;;
16689;SDS011;8458;52.220;9.884;2022-09-27T12:44:49;1.40;;;0.40;;
16689;SDS011;8458;52.220;9.884;2022-09-27T12:50:13;1.23;;;0.30;;
16689;SDS011;8458;52.220;9.884;2022-09-27T12:52:48;0.70;;;0.10;;
16689;SDS011;8458;52.220;9.884;2022-09-27T12:58:30;0.63;;;0.40;;
16689;SDS011;8458;52.220;9.884;2022-09-27T13:01:16;0.57;;;0.40;;
16689;SDS011;8458;52.220;9.884;2022-09-27T13:03:59;0.80;;;0.60;;
16689;SDS011;8458;52.220;9.884;2022-09-27T13:06:49;0.20;;;0.20;;
16689;SDS011;8458;52.220;9.884;2022-09-27T13:09:31;0.27;;;0.10;;
16689;SDS011;8458;52.220;9.884;2022-09-27T13:12:28;0.97;;;0.20;;
16689;SDS011;8458;52.220;9.884;2022-09-27T13:15:00;0.30;;;0.30;;
16689;SDS011;8458;52.220;9.884;2022-09-27T13:17:31;0.80;;;0.10;;
16689;SDS011;8458;52.220;9.884;2022-09-27T13:20:37;0.20;;;0.10;;
16689;SDS011;8458;52.220;9.884;2022-09-27T13:26:22;0.50;;;0.20;;
16689;SDS011;8458;52.220;9.884;2022-09-27T13:29:10;0.83;;;0.30;;
16689;SDS011;8458;52.220;9.884;2022-09-27T13:32:13;0.20;;;0.20;;
16689;SDS011;8458;52.220;9.884;2022-09-27T13:34:43;0.40;;;0.10;;
16689;SDS011;8458;52.220;9.884;2022-09-27T13:40:10;0.87;;;0.17;;
16689;SDS011;8458;52.220;9.884;2022-09-27T13:42:51;0.17;;;0.10;;
16689;SDS011;8458;52.220;9.884;2022-09-27T13:45:37;0.67;;;0.20;;
16689;SDS011;8458;52.220;9.884;2022-09-27T13:48:11;0.13;;;0.10;;
16689;SDS011;8458;52.220;9.884;2022-09-27T13:50:44;0.20;;;0.10;;
16689;SDS011;8458;52.220;9.884;2022-09-27T13:53:20;0.40;;;0.40;;
16689;SDS011;8458;52.220;9.884;2022-09-27T13:55:53;0.23;;;0.23;;
16689;SDS011;8458;52.220;9.884;2022-09-27T13:58:29;0.20;;;0.20;;
16689;SDS011;8458;52.220;9.884;2022-09-27T14:01:02;0.20;;;0.10;;
16689;SDS011;8458;52.220;9.884;2022-09-27T14:03:52;1.00;;;0.20;;
16689;SDS011;8458;52.220;9.884;2022-09-27T14:06:21;1.40;;;0.20;;
16689;SDS011;8458;52.220;9.884;2022-09-27T14:08:51;0.73;;;0.30;;
16689;SDS011;8458;52.220;9.884;2022-09-27T14:11:22;1.20;;;0.20;;
16689;SDS011;8458;52.220;9.884;2022-09-27T14:13:51;0.93;;;0.40;;
16689;SDS011;8458;52.220;9.884;2022-09-27T14:16:19;0.57;;;0.20;;
16689;SDS011;8458;52.220;9.884;2022-09-27T14:18:47;0.50;;;0.20;;
16689;SDS011;8458;52.220;9.884;2022-09-27T14:21:21;1.00;;;0.50;;
16689;SDS011;8458;52.220;9.884;2022-09-27T14:27:03;0.30;;;0.30;;
16689;SDS011;8458;52.220;9.884;2022-09-27T14:29:39;1.07;;;0.30;;
16689;SDS011;8458;52.220;9.884;2022-09-27T14:32:09;0.33;;;0.30;;
16689;SDS011;8458;52.220;9.884;2022-09-27T14:34:40;0.20;;;0.20;;
16689;SDS011;8458;52.220;9.884;2022-09-27T14:37:22;1.03;;;0.47;;
16689;SDS011;8458;52.220;9.884;2022-09-27T14:39:56;0.67;;;0.40;;
16689;SDS011;8458;52.220;9.884;2022-09-27T14:42:27;1.13;;;0.30;;
16689;SDS011;8458;52.220;9.884;2022-09-27T14:44:58;0.47;;;0.47;;
16689;SDS011;8458;52.220;9.884;2022-09-27T14:47:28;0.87;;;0.43;;
16689;SDS011;8458;52.220;9.884;2022-09-27T14:49:55;0.27;;;0.23;;
16689;SDS011;8458;52.220;9.884;2022-09-27T14:52:25;0.30;;;0.30;;
16689;SDS011;8458;52.220;9.884;2022-09-27T14:54:54;0.30;;;0.30;;
16689;SDS011;8458;52.220;9.884;2022-09-27T14:57:26;0.60;;;0.30;;
16689;SDS011;8458;52.220;9.884;2022-09-27T14:59:56;2.00;;;0.80;;
16689;SDS011;8458;52.220;9.884;2022-09-27T15:02:25;0.90;;;0.60;;
16689;SDS011;8458;52.220;9.884;2022-09-27T15:04:52;0.83;;;0.83;;
16689;SDS011;8458;52.220;9.884;2022-09-27T15:07:19;0.93;;;0.60;;
16689;SDS011;8458;52.220;9.884;2022-09-27T15:09:48;0.50;;;0.50;;
16689;SDS011;8458;52.220;9.884;2022-09-27T15:12:17;0.50;;;0.33;;
16689;SDS011;8458;52.220;9.884;2022-09-27T15:14:50;0.57;;;0.40;;
16689;SDS011;8458;52.220;9.884;2022-09-27T15:17:20;0.40;;;0.33;;
16689;SDS011;8458;52.220;9.884;2022-09-27T15:19:59;0.73;;;0.40;;
16689;SDS011;8458;52.220;9.884;2022-09-27T15:22:32;0.27;;;0.27;;
16689;SDS011;8458;52.220;9.884;2022-09-27T15:25:16;0.30;;;0.30;;
16689;SDS011;8458;52.220;9.884;2022-09-27T15:27:46;0.50;;;0.50;;
16689;SDS011;8458;52.220;9.884;2022-09-27T15:30:15;0.30;;;0.30;;
16689;SDS011;8458;52.220;9.884;2022-09-27T15:32:47;0.43;;;0.43;;
16689;SDS011;8458;52.220;9.884;2022-09-27T15:35:18;0.40;;;0.37;;
16689;SDS011;8458;52.220;9.884;2022-09-27T15:37:48;0.30;;;0.30;;
16689;SDS011;8458;52.220;9.884;2022-09-27T15:43:32;1.30;;;0.40;;
16689;SDS011;8458;52.220;9.884;2022-09-27T15:46:02;0.50;;;0.40;;
16689;SDS011;8458;52.220;9.884;2022-09-27T15:48:31;0.87;;;0.50;;
16689;SDS011;8458;52.220;9.884;2022-09-27T15:51:01;0.80;;;0.50;;